createdAt,value
2023-10-16T00:03:59.522Z,80.70
2023-10-16T00:09:32.723Z,81.09
2023-10-16T00:14:38.027Z,81.07
2023-10-16T00:19:46.069Z,80.85
2023-10-16T00:24:50.244Z,80.65
2023-10-16T00:29:54.349Z,80.61
2023-10-16T00:34:58.263Z,81.11
2023-10-16T00:40:09.591Z,80.76
2023-10-16T00:45:13.538Z,80.76
2023-10-16T00:50:17.554Z,80.62
2023-10-16T00:55:22.124Z,80.91
2023-10-16T01:00:27.247Z,81.40
2023-10-16T01:05:31.339Z,81.06
2023-10-16T01:10:42.589Z,80.69
2023-10-16T01:15:48.614Z,81.27
2023-10-16T01:20:54.667Z,80.49
2023-10-16T01:26:00.823Z,81.00
2023-10-16T01:31:06.959Z,80.85
2023-10-16T01:36:12.013Z,80.71
2023-10-16T01:41:17.125Z,81.01
2023-10-16T01:46:22.398Z,80.76
2023-10-16T01:51:29.342Z,81.19
2023-10-16T01:56:33.400Z,81.23
2023-10-16T02:01:37.384Z,81.01
2023-10-16T02:06:41.265Z,81.24
2023-10-16T02:11:45.281Z,80.95
2023-10-16T02:16:49.693Z,81.21
2023-10-16T02:21:55.744Z,81.13
2023-10-16T02:26:59.655Z,81.09
2023-10-16T02:32:06.098Z,81.41
2023-10-16T02:37:16.427Z,81.40
2023-10-16T02:42:21.375Z,81.21
2023-10-16T02:47:28.652Z,81.21
2023-10-16T02:52:32.716Z,80.74
2023-10-16T02:57:37.198Z,81.04
2023-10-16T03:02:41.903Z,80.53
2023-10-16T03:07:46.964Z,80.31
2023-10-16T03:12:54.893Z,80.23
2023-10-16T03:17:59.270Z,80.59
2023-10-16T03:23:08.203Z,80.21
2023-10-16T03:28:13.318Z,80.37
2023-10-16T03:33:17.585Z,80.16
2023-10-16T03:38:31.108Z,80.16
2023-10-16T03:43:35.987Z,79.59
2023-10-16T03:48:40.895Z,79.64
2023-10-16T03:53:46.199Z,79.46
2023-10-16T03:58:51.012Z,79.15
2023-10-16T04:03:59.270Z,78.64
2023-10-16T04:09:06.353Z,78.70
2023-10-16T04:14:16.636Z,78.21
2023-10-16T04:19:20.463Z,78.14
2023-10-16T04:24:30.816Z,78.39
2023-10-16T04:29:51.561Z,78.19
2023-10-16T04:34:56.103Z,77.53
2023-10-16T04:40:06.238Z,77.48
2023-10-16T04:45:16.735Z,77.17
2023-10-16T04:51:09.846Z,76.42
2023-10-16T04:56:17.918Z,74.83
2023-10-16T05:01:35.655Z,74.29
2023-10-16T05:06:39.572Z,73.54
2023-10-16T05:12:01.918Z,73.91
2023-10-16T05:17:11.831Z,72.97
2023-10-16T05:22:34.414Z,73.05
2023-10-16T05:27:56.893Z,73.30
2023-10-16T05:33:19.605Z,72.97
2023-10-16T05:38:42.397Z,72.65
2023-10-16T05:44:04.513Z,72.06
2023-10-16T05:49:26.716Z,72.10
2023-10-16T05:54:49.285Z,71.42
2023-10-16T06:00:11.696Z,71.67
2023-10-16T06:05:34.698Z,70.62
2023-10-16T06:10:57.129Z,70.27
2023-10-16T06:16:01.025Z,69.44
2023-10-16T06:21:05.181Z,69.74
2023-10-16T06:26:10.487Z,68.82
2023-10-16T06:31:15.282Z,68.66
2023-10-16T06:36:20.056Z,68.14
2023-10-16T06:41:25.153Z,67.58
2023-10-16T06:46:29.126Z,67.87
2023-10-16T06:51:33.253Z,67.88
2023-10-16T06:56:39.657Z,67.79
2023-10-16T07:01:44.226Z,67.30
2023-10-16T07:06:50.980Z,66.90
2023-10-16T07:11:56.816Z,66.70
2023-10-16T07:17:01.178Z,66.45
2023-10-16T07:22:12.595Z,66.46
2023-10-16T07:27:16.642Z,66.21
2023-10-16T07:32:21.631Z,65.98
2023-10-16T07:37:26.537Z,66.26
2023-10-16T07:42:31.586Z,65.85
2023-10-16T07:47:35.484Z,65.38
2023-10-16T07:52:39.270Z,64.80
2023-10-16T07:57:45.291Z,64.62
2023-10-16T08:02:49.169Z,64.39
2023-10-16T08:07:55.232Z,64.36
2023-10-16T08:12:59.161Z,64.10
2023-10-16T08:18:03.138Z,63.62
2023-10-16T08:23:08.110Z,63.99
2023-10-16T08:28:26.659Z,63.84
2023-10-16T08:33:33.631Z,63.76
2023-10-16T08:38:38.252Z,63.56
2023-10-16T08:43:56.595Z,63.54
2023-10-16T08:49:04.966Z,63.38
2023-10-16T08:54:29.487Z,63.26
2023-10-16T08:59:34.032Z,63.07
2023-10-16T09:04:38.808Z,63.49
2023-10-16T09:09:43.013Z,63.73
2023-10-16T09:14:46.886Z,63.86
2023-10-16T09:20:04.663Z,63.59
2023-10-16T09:25:12.447Z,63.75
2023-10-16T09:30:19.866Z,63.82
2023-10-16T09:35:34.574Z,64.42
2023-10-16T09:40:42.177Z,64.42
2023-10-16T09:45:49.496Z,64.39
2023-10-16T09:50:54.539Z,65.09
2023-10-16T09:56:04.092Z,64.94
2023-10-16T10:01:11.741Z,64.75
2023-10-16T10:06:23.059Z,64.92
2023-10-16T10:11:40.531Z,65.15
2023-10-16T10:16:49.104Z,65.37
2023-10-16T10:21:56.390Z,65.42
2023-10-16T10:27:04.236Z,65.47
2023-10-16T10:32:11.532Z,65.33
2023-10-16T10:37:43.757Z,65.05
2023-10-16T10:42:49.613Z,64.92
2023-10-16T10:47:57.066Z,64.80
2023-10-16T10:53:05.052Z,64.75
2023-10-16T10:58:15.165Z,64.97
2023-10-16T11:03:32.334Z,64.86
2023-10-16T11:08:37.173Z,64.36
2023-10-16T11:13:48.933Z,63.83
2023-10-16T11:19:01.188Z,63.81
2023-10-16T11:24:07.638Z,63.74
2023-10-16T11:29:14.132Z,63.70
2023-10-16T11:34:23.443Z,63.78
2023-10-16T11:39:28.886Z,63.51
2023-10-16T11:44:39.913Z,63.79
2023-10-16T11:49:56.279Z,63.47
2023-10-16T11:55:00.350Z,63.79
2023-10-16T12:00:17.949Z,63.58
2023-10-16T12:05:21.837Z,63.60
2023-10-16T12:10:30.602Z,63.89
2023-10-16T12:15:35.676Z,63.97
2023-10-16T12:20:39.865Z,63.46
2023-10-16T12:25:43.715Z,64.09
2023-10-16T12:30:48.021Z,63.51
2023-10-16T12:35:51.846Z,63.42
2023-10-16T12:40:57.634Z,63.90
2023-10-16T12:46:01.522Z,63.61
2023-10-16T12:51:12.115Z,64.15
2023-10-16T12:56:19.034Z,64.07
2023-10-16T13:01:23.514Z,63.99
2023-10-16T13:06:31.061Z,63.57
2023-10-16T13:11:36.051Z,63.91
2023-10-16T13:16:41.354Z,63.42
2023-10-16T13:21:48.130Z,63.56
2023-10-16T13:26:54.287Z,63.40
2023-10-16T13:32:02.560Z,63.21
2023-10-16T13:37:12.557Z,63.37
2023-10-16T13:42:18.536Z,63.30
2023-10-16T13:47:22.446Z,63.05
2023-10-16T13:52:26.478Z,62.92
2023-10-16T13:57:31.191Z,62.83
2023-10-16T14:02:38.655Z,63.24
2023-10-16T14:07:45.818Z,62.88
2023-10-16T14:13:00.869Z,62.73
2023-10-16T14:18:05.346Z,62.81
2023-10-16T14:23:12.919Z,62.53
2023-10-16T14:28:45.856Z,62.19
2023-10-16T14:33:53.366Z,62.40
2023-10-16T14:38:58.895Z,62.09
2023-10-16T14:44:17.004Z,62.21
2023-10-16T14:49:28.620Z,62.06
2023-10-16T14:54:33.801Z,61.78
2023-10-16T14:59:39.507Z,62.07
2023-10-16T15:04:45.960Z,61.76
2023-10-16T15:09:51.043Z,61.70
2023-10-16T15:14:55.121Z,61.54
2023-10-16T15:19:59.719Z,61.12
2023-10-16T15:25:04.846Z,61.63
2023-10-16T15:30:12.093Z,61.31
2023-10-16T15:35:17.548Z,61.91
2023-10-16T15:40:22.029Z,61.50
2023-10-16T15:45:28.049Z,61.29
2023-10-16T15:50:33.079Z,61.44
2023-10-16T15:55:38.626Z,61.71
2023-10-16T16:00:46.800Z,61.41
2023-10-16T16:05:53.512Z,61.53
2023-10-16T16:10:57.669Z,61.68
2023-10-16T16:16:07.480Z,61.32
2023-10-16T16:21:15.233Z,61.79
2023-10-16T16:26:19.216Z,61.52
2023-10-16T16:31:23.761Z,61.43
2023-10-16T16:36:29.841Z,61.35
2023-10-16T16:41:36.081Z,61.51
2023-10-16T16:46:40.314Z,61.65
2023-10-16T16:51:45.107Z,62.54
2023-10-16T16:56:49.430Z,62.93
2023-10-16T17:01:56.675Z,62.67
2023-10-16T17:07:06.136Z,63.31
2023-10-16T17:12:10.887Z,64.40
2023-10-16T17:17:14.926Z,64.83
2023-10-16T17:22:19.101Z,65.68
2023-10-16T17:27:23.126Z,66.59
2023-10-16T17:32:27.196Z,67.48
2023-10-16T17:37:31.621Z,68.07
2023-10-16T17:42:36.149Z,68.67
2023-10-16T17:47:40.336Z,69.79
2023-10-16T17:52:48.946Z,69.91
2023-10-16T17:57:52.773Z,70.77
2023-10-16T18:02:58.330Z,71.68
2023-10-16T18:08:11.151Z,72.00
2023-10-16T18:13:17.471Z,72.35
2023-10-16T18:18:22.400Z,72.87
2023-10-16T18:23:26.868Z,72.66
2023-10-16T18:28:30.723Z,73.80
2023-10-16T18:33:34.854Z,74.10
2023-10-16T18:38:39.727Z,74.28
2023-10-16T18:43:43.748Z,74.90
2023-10-16T18:48:47.760Z,75.30
2023-10-16T18:53:52.330Z,75.43
2023-10-16T18:58:57.375Z,75.31
2023-10-16T19:04:02.722Z,76.36
2023-10-16T19:09:06.832Z,76.42
2023-10-16T19:14:10.640Z,76.68
2023-10-16T19:19:14.644Z,77.02
2023-10-16T19:24:21.706Z,77.14
2023-10-16T19:29:25.846Z,77.67
2023-10-16T19:34:31.081Z,77.61
2023-10-16T19:39:35.841Z,77.94
2023-10-16T19:44:39.914Z,77.93
2023-10-16T19:49:44.148Z,78.21
2023-10-16T19:54:49.378Z,77.97
2023-10-16T19:59:53.198Z,78.51
2023-10-16T20:04:57.295Z,78.97
2023-10-16T20:10:01.175Z,79.05
2023-10-16T20:15:07.429Z,79.22
2023-10-16T20:20:26.625Z,79.17
2023-10-16T20:25:38.502Z,79.51
2023-10-16T20:30:44.331Z,79.28
2023-10-16T20:35:49.220Z,79.25
2023-10-16T20:40:53.174Z,79.38
2023-10-16T20:45:57.220Z,79.67
2023-10-16T20:51:01.097Z,79.99
2023-10-16T20:56:08.291Z,79.84
2023-10-16T21:01:17.179Z,80.29
2023-10-16T21:06:21.072Z,80.53
2023-10-16T21:11:25.140Z,80.67
2023-10-16T21:16:29.155Z,80.36
2023-10-16T21:21:34.253Z,80.96
2023-10-16T21:26:38.195Z,80.84
2023-10-16T21:31:42.355Z,80.70
2023-10-16T21:36:46.512Z,81.30
2023-10-16T21:41:51.764Z,81.07
2023-10-16T21:46:55.621Z,81.70
2023-10-16T21:51:59.468Z,81.87
2023-10-16T21:57:04.053Z,82.11
2023-10-16T22:02:09.504Z,82.17
2023-10-16T22:07:14.753Z,82.17
2023-10-16T22:12:19.468Z,82.18
2023-10-16T22:17:24.729Z,82.63
2023-10-16T22:22:28.905Z,82.70
2023-10-16T22:27:33.921Z,82.71
2023-10-16T22:32:38.083Z,82.95
2023-10-16T22:37:42.628Z,82.72
2023-10-16T22:42:46.656Z,83.23
2023-10-16T22:47:53.375Z,82.91
2023-10-16T22:52:57.410Z,83.39
2023-10-16T22:58:01.267Z,83.30
2023-10-16T23:03:06.402Z,83.78
2023-10-16T23:08:10.618Z,83.61
2023-10-16T23:13:14.586Z,83.56
2023-10-16T23:18:20.986Z,83.94
2023-10-16T23:23:24.850Z,83.96
2023-10-16T23:28:32.086Z,83.83
2023-10-16T23:33:41.875Z,84.04
2023-10-16T23:38:45.749Z,84.17
2023-10-16T23:43:53.646Z,84.15
2023-10-16T23:49:10.088Z,84.19
2023-10-16T23:54:32.690Z,84.68
2023-10-16T23:59:36.458Z,84.76
